Time;durP1;ratioP1;P1;durP2;ratioP2;P2;SDS_P1;SDS_P2;PMS_P1;PMS_P2;Temp;Humidity;BMP_temperature;BMP_pressure;BME280_temperature;BME280_humidity;BME280_pressure;Samples;Min_cycle;Max_cycle;Signal;HPM_P1;HPM_P2
2022/01/29 00:02:23;;;;;;;5.67;3.73;;;7.70;74.40;7.80;97906.00;;;;5072488;28;20617;-82
2022/01/29 00:04:51;;;;;;;3.40;3.10;;;7.70;74.40;7.80;97893.00;;;;5028021;28;20218;-81
2022/01/29 00:07:18;;;;;;;4.53;3.60;;;7.60;74.40;7.80;97900.00;;;;5048069;28;20224;-82
2022/01/29 00:09:48;;;;;;;6.30;3.50;;;7.60;74.40;7.70;97896.00;;;;5045834;28;20229;-81
2022/01/29 00:12:15;;;;;;;6.00;3.57;;;7.60;74.30;7.70;97898.00;;;;5037150;28;20257;-82
2022/01/29 00:14:43;;;;;;;3.57;2.90;;;7.60;74.40;7.70;97886.00;;;;5034144;28;20227;-81
2022/01/29 00:17:11;;;;;;;3.60;3.23;;;7.60;74.40;7.70;97893.00;;;;5034166;28;20194;-81
2022/01/29 00:19:40;;;;;;;4.07;3.27;;;7.60;74.50;7.70;97880.00;;;;5034260;28;20197;-81
2022/01/29 00:22:09;;;;;;;3.80;3.43;;;7.70;74.40;7.70;97880.00;;;;5042301;28;20646;-82
2022/01/29 00:24:36;;;;;;;3.93;3.20;;;7.60;74.40;7.70;97874.00;;;;5040003;28;20213;-81
2022/01/29 00:27:08;;;;;;;3.67;3.03;;;7.60;74.40;7.70;97863.00;;;;5034856;28;20193;-82
2022/01/29 00:29:38;;;;;;;3.00;2.80;;;7.60;74.40;7.70;97863.00;;;;5039944;28;20193;-81
2022/01/29 00:32:06;;;;;;;3.63;3.10;;;7.60;74.30;7.60;97866.00;;;;5035494;28;20923;-81
2022/01/29 00:34:33;;;;;;;3.97;2.97;;;7.60;74.40;7.60;97860.00;;;;5037311;28;20219;-83
2022/01/29 00:37:00;;;;;;;4.67;3.27;;;7.50;74.40;7.60;97844.00;;;;5039102;28;20212;-81
2022/01/29 00:39:29;;;;;;;3.27;3.07;;;7.50;74.60;7.60;97842.00;;;;5033937;28;20220;-82
2022/01/29 00:41:56;;;;;;;4.90;3.20;;;7.50;74.50;7.60;97840.00;;;;5033886;28;20296;-81
2022/01/29 00:44:23;;;;;;;3.33;2.97;;;7.50;74.30;7.60;97843.00;;;;5034716;28;20218;-83
2022/01/29 00:46:51;;;;;;;3.57;3.03;;;7.50;74.20;7.60;97840.00;;;;5033196;28;20192;-81
2022/01/29 00:49:18;;;;;;;4.00;3.03;;;7.50;74.10;7.50;97847.00;;;;5040299;28;20189;-83
2022/01/29 00:51:44;;;;;;;4.13;3.00;;;7.40;74.40;7.50;97841.00;;;;5034316;28;20224;-81
2022/01/29 00:54:11;;;;;;;3.90;2.87;;;7.40;74.30;7.40;97844.00;;;;5042994;28;20202;-84
2022/01/29 00:56:40;;;;;;;3.90;3.13;;;7.40;74.40;7.40;97834.00;;;;5041263;28;20193;-81
2022/01/29 00:59:07;;;;;;;4.13;2.90;;;7.30;74.20;7.40;97838.00;;;;5028523;28;20221;-81
2022/01/29 01:01:34;;;;;;;3.50;2.80;;;7.30;74.30;7.40;97830.00;;;;5014077;28;20206;-82
2022/01/29 06:24:33;;;;;;;3.03;2.73;;;6.80;75.00;6.80;97544.00;;;;600770;22;20480;-89
2022/01/29 06:27:00;;;;;;;3.80;3.07;;;6.80;74.70;6.90;97539.00;;;;5007423;28;20205;-87
2022/01/29 06:29:28;;;;;;;3.90;3.30;;;6.80;75.20;6.90;97538.00;;;;5019993;28;20746;-87
2022/01/29 06:31:57;;;;;;;3.43;2.70;;;6.90;75.10;6.90;97546.00;;;;5034289;28;20316;-88
2022/01/29 06:34:24;;;;;;;3.33;2.80;;;6.90;75.20;6.90;97543.00;;;;5026412;28;20218;-88
2022/01/29 06:36:51;;;;;;;3.10;2.77;;;6.90;75.20;7.00;97537.00;;;;5003425;28;20208;-87
2022/01/29 06:39:21;;;;;;;5.30;2.70;;;6.90;75.40;7.00;97529.00;;;;5029176;28;20292;-88
2022/01/29 06:41:49;;;;;;;3.50;2.83;;;6.90;75.30;7.00;97538.00;;;;5002069;28;20245;-87
2022/01/29 06:44:16;;;;;;;3.70;2.97;;;6.90;75.00;7.10;97548.00;;;;5014212;28;20233;-87
2022/01/29 06:46:43;;;;;;;3.77;3.20;;;7.00;75.00;7.10;97538.00;;;;5017344;28;20245;-87
2022/01/29 06:49:11;;;;;;;4.20;3.30;;;7.00;74.90;7.10;97541.00;;;;5014238;28;20646;-87
2022/01/29 06:51:38;;;;;;;4.30;3.57;;;7.00;75.00;7.10;97533.00;;;;5014228;28;20305;-87
2022/01/29 06:54:05;;;;;;;4.20;3.10;;;7.00;74.90;7.10;97533.00;;;;5019457;28;20618;-88
2022/01/29 06:56:32;;;;;;;6.00;3.37;;;7.00;74.80;7.10;97534.00;;;;5025911;28;20203;-88
2022/01/29 06:59:04;;;;;;;5.27;3.20;;;7.00;74.80;7.10;97528.00;;;;5015056;28;20624;-87
2022/01/29 07:01:31;;;;;;;5.50;3.47;;;7.00;74.80;7.10;97525.00;;;;5022719;28;20300;-87
2022/01/29 07:03:59;;;;;;;4.23;3.50;;;7.10;75.00;7.20;97525.00;;;;5019339;28;20222;-88
2022/01/29 07:06:31;;;;;;;4.77;3.17;;;7.10;75.00;7.20;97512.00;;;;5013494;28;20209;-88
2022/01/29 07:08:59;;;;;;;6.37;3.17;;;7.10;75.10;7.20;97522.00;;;;5022198;28;20198;-88
2022/01/29 07:11:27;;;;;;;3.27;2.93;;;7.10;75.00;7.30;97526.00;;;;4996407;28;20310;-87
2022/01/29 07:14:01;;;;;;;3.33;3.03;;;7.20;75.80;7.30;97529.00;;;;4995163;28;20226;-87
2022/01/29 07:16:36;;;;;;;3.27;2.97;;;7.20;75.00;7.40;97525.00;;;;4995033;28;20206;-88
2022/01/29 07:19:04;;;;;;;3.13;2.83;;;7.20;74.90;7.40;97517.00;;;;5012735;28;20284;-88
2022/01/29 07:21:31;;;;;;;4.53;3.40;;;7.20;75.10;7.40;97520.00;;;;5022649;28;20226;-86
2022/01/29 07:23:59;;;;;;;3.20;2.60;;;7.30;75.20;7.50;97536.00;;;;5018014;28;20194;-87
2022/01/29 07:26:26;;;;;;;4.27;3.47;;;7.30;75.10;7.50;97533.00;;;;5025062;28;20201;-86
2022/01/29 07:28:53;;;;;;;4.47;2.97;;;7.40;75.40;7.60;97531.00;;;;5016129;28;20570;-86
2022/01/29 07:31:21;;;;;;;4.37;3.43;;;7.40;75.20;7.70;97527.00;;;;5025293;28;20251;-88
2022/01/29 07:33:50;;;;;;;3.23;2.97;;;7.40;75.30;7.70;97535.00;;;;5014579;28;20217;-87
2022/01/29 07:36:18;;;;;;;3.80;3.40;;;7.50;75.20;7.70;97540.00;;;;5004335;28;20198;-87
2022/01/29 07:38:46;;;;;;;3.40;3.10;;;7.50;75.20;7.80;97535.00;;;;5008280;28;20200;-86
2022/01/29 07:41:13;;;;;;;3.10;2.80;;;7.50;75.10;7.80;97534.00;;;;5013762;28;20218;-87
2022/01/29 07:43:40;;;;;;;3.43;3.00;;;7.60;75.10;7.90;97526.00;;;;5013763;28;20225;-88
2022/01/29 07:46:07;;;;;;;4.90;3.47;;;7.60;75.20;7.90;97535.00;;;;5013237;28;20296;-89
2022/01/29 07:48:37;;;;;;;3.73;3.43;;;7.60;75.10;8.00;97533.00;;;;5013357;28;20194;-87
2022/01/29 07:51:05;;;;;;;4.40;3.37;;;7.70;75.20;8.00;97533.00;;;;4993664;28;20285;-86
2022/01/29 07:53:37;;;;;;;4.90;4.40;;;7.70;75.10;8.00;97535.00;;;;5011788;28;20222;-86
2022/01/29 07:56:10;;;;;;;5.60;4.63;;;7.70;75.10;8.10;97531.00;;;;5032507;28;20284;-87
2022/01/29 07:58:48;;;;;;;6.33;4.37;;;7.80;75.10;8.10;97517.00;;;;5018985;28;20212;-86
2022/01/29 08:01:22;;;;;;;4.70;4.27;;;7.80;75.10;8.20;97522.00;;;;5010758;28;20272;-86
2022/01/29 08:04:02;;;;;;;5.63;4.00;;;7.90;75.00;8.20;97513.00;;;;5010630;28;20201;-85
2022/01/29 08:06:34;;;;;;;5.73;4.40;;;7.90;75.20;8.30;97513.00;;;;5012483;28;20221;-85
2022/01/29 08:09:04;;;;;;;4.90;3.90;;;8.00;74.90;8.30;97517.00;;;;5013361;28;20233;-85
2022/01/29 08:11:44;;;;;;;4.30;3.60;;;8.00;74.80;8.30;97513.00;;;;5012380;28;20280;-86
2022/01/29 08:14:11;;;;;;;6.17;3.80;;;8.10;75.60;8.40;97504.00;;;;5012349;28;20564;-86
2022/01/29 08:16:58;;;;;;;4.27;3.87;;;8.10;75.20;8.40;97513.00;;;;5012396;28;20631;-86
2022/01/29 08:19:27;;;;;;;4.50;3.73;;;8.10;74.80;8.40;97510.00;;;;5013154;28;20198;-86
2022/01/29 08:22:07;;;;;;;4.67;3.90;;;8.20;74.30;8.40;97516.00;;;;5011410;28;20601;-86
2022/01/29 08:24:36;;;;;;;3.97;3.57;;;8.20;74.40;8.40;97503.00;;;;5015845;28;20210;-87
2022/01/29 08:27:13;;;;;;;4.40;4.00;;;8.20;74.90;8.50;97503.00;;;;5020967;28;20729;-87
2022/01/29 08:29:42;;;;;;;3.70;3.40;;;8.20;74.70;8.50;97500.00;;;;5008067;28;20287;-85
2022/01/29 08:32:09;;;;;;;5.40;3.97;;;8.20;74.70;8.50;97491.00;;;;5012837;28;20268;-86
2022/01/29 08:34:38;;;;;;;4.13;3.60;;;8.20;74.40;8.50;97495.00;;;;5012124;28;20209;-86
2022/01/29 08:37:16;;;;;;;4.43;4.03;;;8.30;74.40;8.60;97493.00;;;;5006095;28;20225;-86
2022/01/29 08:42:35;;;;;;;4.23;3.83;;;8.30;74.30;8.60;97492.00;;;;5000797;28;20219;-87
2022/01/29 08:45:05;;;;;;;6.23;4.03;;;8.40;74.60;8.70;97495.00;;;;5012441;28;20265;-85
2022/01/29 08:47:32;;;;;;;4.73;4.03;;;8.40;74.60;8.80;97497.00;;;;5013197;28;20238;-84
2022/01/29 08:50:00;;;;;;;5.43;4.10;;;8.40;74.40;8.80;97486.00;;;;5013450;28;20289;-84
2022/01/29 08:52:29;;;;;;;4.70;4.10;;;8.50;74.60;8.90;97489.00;;;;5012785;28;20691;-85
2022/01/29 08:54:56;;;;;;;4.63;3.83;;;8.60;74.60;9.00;97480.00;;;;5012436;28;20214;-86
2022/01/29 08:57:24;;;;;;;4.30;3.80;;;8.60;74.80;9.10;97472.00;;;;5006533;28;20218;-85
2022/01/29 08:59:54;;;;;;;4.17;3.83;;;8.70;74.90;9.10;97473.00;;;;5012785;28;20631;-86
2022/01/29 09:02:21;;;;;;;5.23;3.97;;;8.70;74.60;9.20;97482.00;;;;5012521;28;20260;-84
2022/01/29 09:04:52;;;;;;;4.90;3.27;;;8.80;74.20;9.30;97475.00;;;;5007734;28;20296;-83
2022/01/29 09:07:22;;;;;;;4.57;3.63;;;8.80;74.20;9.30;97469.00;;;;5020918;28;20217;-84
2022/01/29 09:09:51;;;;;;;5.17;3.83;;;8.90;74.00;9.40;97471.00;;;;5015068;28;20247;-84
2022/01/29 09:12:18;;;;;;;4.63;3.60;;;9.00;73.90;9.40;97466.00;;;;5020486;28;20300;-85
2022/01/29 09:14:46;;;;;;;4.20;3.57;;;9.00;74.10;9.50;97456.00;;;;5013838;28;20252;-83
2022/01/29 09:17:13;;;;;;;4.27;3.87;;;9.00;74.00;9.50;97451.00;;;;5020765;28;20764;-85
2022/01/29 09:19:46;;;;;;;3.80;3.40;;;9.10;73.60;9.50;97443.00;;;;5025977;28;20291;-86
2022/01/29 09:22:16;;;;;;;5.23;3.40;;;9.20;73.20;9.60;97448.00;;;;5011963;28;20240;-85
2022/01/29 09:24:51;;;;;;;3.83;3.43;;;9.20;73.50;9.60;97452.00;;;;4996459;28;20289;-85
2022/01/29 09:27:18;;;;;;;4.40;3.83;;;9.20;73.50;9.70;97454.00;;;;5011530;28;20224;-86
2022/01/29 09:29:45;;;;;;;4.43;3.30;;;9.30;73.50;9.80;97459.00;;;;5012181;28;20623;-86
2022/01/29 09:32:13;;;;;;;3.67;3.37;;;9.30;72.70;9.80;97457.00;;;;5011866;28;20221;-84
2022/01/29 09:34:40;;;;;;;5.57;3.60;;;9.40;73.10;9.90;97463.00;;;;5011720;28;20226;-85
2022/01/29 09:37:07;;;;;;;4.17;3.63;;;9.50;73.20;9.90;97463.00;;;;5014760;28;20241;-84
2022/01/29 09:39:36;;;;;;;4.13;3.40;;;9.50;73.40;9.90;97467.00;;;;5006767;28;20284;-85
2022/01/29 09:42:09;;;;;;;4.00;3.60;;;9.50;72.30;9.90;97466.00;;;;5003392;28;20633;-84
2022/01/29 09:44:37;;;;;;;4.17;3.30;;;9.60;71.90;9.90;97460.00;;;;5014279;28;20198;-86
2022/01/29 09:47:17;;;;;;;4.20;3.20;;;9.60;71.50;9.90;97463.00;;;;5015080;28;20193;-85
2022/01/29 09:49:46;;;;;;;4.03;3.30;;;9.70;71.10;9.90;97467.00;;;;5023895;28;20201;-85
2022/01/29 09:52:14;;;;;;;5.00;3.43;;;9.70;71.20;9.90;97477.00;;;;5023985;28;20639;-85
2022/01/29 09:54:49;;;;;;;3.90;3.50;;;9.70;71.50;10.00;97479.00;;;;5019081;28;20280;-85
2022/01/29 09:57:31;;;;;;;4.43;3.60;;;9.70;71.20;9.90;97482.00;;;;5016048;28;20236;-85
2022/01/29 10:00:01;;;;;;;3.90;3.53;;;9.80;70.60;9.90;97478.00;;;;5015500;28;20252;-86
2022/01/29 10:02:28;;;;;;;4.67;3.93;;;9.70;70.50;9.90;97468.00;;;;5007792;28;20233;-86
2022/01/29 10:05:00;;;;;;;4.13;3.73;;;9.80;71.10;9.90;97465.00;;;;5013021;28;20204;-84
2022/01/29 10:07:30;;;;;;;3.83;3.47;;;9.80;70.70;9.90;97459.00;;;;5003212;28;20254;-84
2022/01/29 10:10:03;;;;;;;5.33;3.87;;;9.80;70.80;9.90;97461.00;;;;5016727;28;20191;-84
2022/01/29 10:12:33;;;;;;;4.30;3.70;;;9.80;70.60;10.00;97469.00;;;;5029563;28;20272;-85
2022/01/29 10:15:10;;;;;;;3.40;3.10;;;9.80;70.30;10.00;97458.00;;;;5026541;28;20221;-85
2022/01/29 10:17:55;;;;;;;4.20;3.63;;;9.80;70.10;10.00;97449.00;;;;4997802;28;20285;-83
2022/01/29 10:20:25;;;;;;;3.60;3.30;;;9.80;71.00;10.00;97445.00;;;;5014798;28;20198;-86
2022/01/29 10:22:55;;;;;;;4.00;3.60;;;9.80;70.20;10.00;97443.00;;;;5015508;28;20218;-86
2022/01/29 10:25:26;;;;;;;4.13;3.60;;;9.80;70.00;9.90;97425.00;;;;5013829;28;20241;-86
2022/01/29 10:28:24;;;;;;;4.90;3.97;;;9.80;70.00;10.00;97426.00;;;;5015273;28;20202;-86
2022/01/29 10:31:01;;;;;;;4.00;3.20;;;9.80;68.80;10.00;97424.00;;;;4969630;28;20188;-85
2022/01/29 10:33:31;;;;;;;4.07;3.67;;;9.80;70.00;10.00;97423.00;;;;5003033;28;20318;-86
2022/01/29 10:36:01;;;;;;;4.33;3.60;;;9.80;69.80;10.00;97419.00;;;;5019548;28;20285;-87
2022/01/29 10:38:46;;;;;;;3.67;3.30;;;9.80;70.60;10.00;97421.00;;;;5011507;28;20722;-86
2022/01/29 10:41:20;;;;;;;3.70;3.13;;;9.80;68.70;10.00;97425.00;;;;5013791;28;20630;-85
2022/01/29 10:44:14;;;;;;;4.37;3.40;;;9.80;69.20;10.00;97417.00;;;;5014986;28;20197;-84
2022/01/29 10:46:50;;;;;;;3.53;3.23;;;9.80;69.00;10.00;97438.00;;;;5015262;28;20201;-85
2022/01/29 10:49:22;;;;;;;3.60;3.20;;;9.80;69.40;10.10;97430.00;;;;5014290;28;20863;-85
2022/01/29 10:52:05;;;;;;;3.80;3.40;;;9.80;68.70;10.10;97431.00;;;;5018286;28;20217;-85
2022/01/29 10:54:35;;;;;;;3.30;2.90;;;9.90;67.70;10.10;97424.00;;;;5013852;28;20230;-83
2022/01/29 10:57:05;;;;;;;3.43;3.13;;;9.90;68.80;10.20;97422.00;;;;5023294;28;20596;-86
2022/01/29 10:59:48;;;;;;;2.83;2.63;;;10.00;68.80;10.20;97420.00;;;;5009995;28;20182;-85
2022/01/29 11:02:17;;;;;;;2.97;2.77;;;10.00;68.60;10.30;97425.00;;;;5014303;28;20226;-85
2022/01/29 11:04:46;;;;;;;3.43;3.13;;;10.00;69.20;10.40;97420.00;;;;5013342;28;20272;-85
2022/01/29 11:07:18;;;;;;;2.77;2.57;;;10.10;69.30;10.40;97427.00;;;;5014309;28;20213;-85
2022/01/29 11:09:51;;;;;;;3.00;2.40;;;10.10;68.50;10.50;97415.00;;;;5011431;28;20683;-84
2022/01/29 11:12:21;;;;;;;3.33;2.67;;;10.20;68.30;10.50;97413.00;;;;5013378;28;20253;-84
2022/01/29 11:14:53;;;;;;;3.20;2.67;;;10.20;67.20;10.50;97426.00;;;;5005203;28;20566;-84
2022/01/29 11:17:25;;;;;;;3.20;2.90;;;10.30;68.20;10.50;97409.00;;;;5014523;28;20237;-84
2022/01/29 11:19:56;;;;;;;3.07;2.80;;;10.30;64.40;10.50;97406.00;;;;5013472;28;20232;-84
2022/01/29 11:22:31;;;;;;;2.40;2.20;;;10.30;65.80;10.60;97414.00;;;;5013229;28;20214;-83
2022/01/29 11:25:02;;;;;;;2.87;2.40;;;10.40;66.60;10.60;97411.00;;;;5013225;28;20284;-85
2022/01/29 11:27:31;;;;;;;2.63;1.77;;;10.40;66.50;10.70;97414.00;;;;5012583;28;20198;-85
2022/01/29 11:30:04;;;;;;;2.93;2.20;;;10.40;66.20;10.70;97416.00;;;;5013632;28;20201;-84
2022/01/29 11:32:41;;;;;;;2.17;2.00;;;10.50;65.90;10.80;97417.00;;;;4993980;28;20695;-84
2022/01/29 11:35:23;;;;;;;2.57;2.37;;;10.50;66.10;10.80;97412.00;;;;5012380;28;20232;-85
2022/01/29 11:38:00;;;;;;;2.77;2.10;;;10.60;65.30;10.80;97410.00;;;;4990353;28;20202;-85
2022/01/29 11:40:33;;;;;;;2.83;2.40;;;10.60;65.40;10.90;97405.00;;;;5003312;28;20293;-84
2022/01/29 11:43:27;;;;;;;3.57;2.30;;;10.60;65.90;10.90;97401.00;;;;5017869;28;20212;-84
2022/01/29 11:46:03;;;;;;;2.37;1.90;;;10.70;64.90;11.00;97405.00;;;;5006154;28;20201;-84
2022/01/29 11:48:55;;;;;;;3.27;2.23;;;10.70;65.60;11.00;97393.00;;;;5027296;28;20644;-85
2022/01/29 11:51:47;;;;;;;1.80;1.70;;;10.80;65.00;11.10;97394.00;;;;5016106;28;20218;-84
2022/01/29 11:54:56;;;;;;;1.77;1.67;;;10.90;63.80;11.10;97377.00;;;;5012597;28;20218;-84
2022/01/29 11:57:24;;;;;;;1.70;1.60;;;10.90;65.50;11.20;97380.00;;;;5007370;28;20823;-85
2022/01/29 11:59:51;;;;;;;2.20;2.00;;;10.90;66.00;11.30;97390.00;;;;5005532;28;20204;-86
2022/01/29 12:02:43;;;;;;;2.60;1.87;;;11.00;65.40;11.40;97375.00;;;;5013276;28;20777;-86
2022/01/29 12:05:11;;;;;;;2.00;1.87;;;11.10;62.80;11.40;97370.00;;;;5016606;28;20201;-87
2022/01/29 12:08:12;;;;;;;1.70;1.60;;;11.10;64.40;11.50;97361.00;;;;5025603;28;20201;-86
2022/01/29 12:10:42;;;;;;;3.13;2.00;;;11.20;63.20;11.50;97353.00;;;;5015120;28;20228;-87
2022/01/29 12:13:15;;;;;;;2.03;1.60;;;11.30;62.20;11.60;97351.00;;;;5015195;23;20206;-85
2022/01/29 12:15:42;;;;;;;1.67;1.50;;;11.30;63.30;11.70;97350.00;;;;4985777;28;20231;-85
2022/01/29 12:18:35;;;;;;;1.90;1.80;;;11.40;62.50;11.70;97337.00;;;;4989117;28;20191;-85
2022/01/29 12:21:05;;;;;;;1.47;1.37;;;11.50;63.20;11.70;97348.00;;;;4962068;28;20639;-83
2022/01/29 12:23:50;;;;;;;1.83;1.50;;;11.50;63.40;11.80;97335.00;;;;4975192;28;20206;-83
2022/01/29 12:26:22;;;;;;;1.90;1.77;;;11.50;60.00;11.80;97333.00;;;;4973898;28;20223;-85
2022/01/29 12:28:52;;;;;;;1.57;1.47;;;11.50;61.80;11.80;97338.00;;;;4960276;28;20247;-85
2022/01/29 12:31:19;;;;;;;2.17;1.40;;;11.60;63.30;11.90;97326.00;;;;4956674;29;20210;-85
2022/01/29 12:33:48;;;;;;;3.73;1.33;;;11.60;63.30;11.90;97325.00;;;;4955838;29;20228;-83
2022/01/29 12:36:15;;;;;;;1.83;1.23;;;11.60;63.40;11.90;97311.00;;;;4955071;28;20252;-83
2022/01/29 12:38:45;;;;;;;2.03;1.40;;;11.70;63.00;12.00;97320.00;;;;4973577;28;20290;-82
2022/01/29 12:41:23;;;;;;;2.00;1.10;;;11.70;62.90;12.00;97314.00;;;;4974586;28;20210;-83
2022/01/29 12:43:58;;;;;;;1.37;1.27;;;11.70;63.30;12.00;97303.00;;;;4966506;28;20203;-84
2022/01/29 12:46:27;;;;;;;1.47;1.37;;;11.80;62.90;12.10;97289.00;;;;4979003;28;20217;-82
2022/01/29 12:49:06;;;;;;;1.50;1.10;;;11.80;63.20;12.10;97298.00;;;;4977152;28;20685;-83
2022/01/29 12:51:34;;;;;;;1.30;1.20;;;11.80;62.00;12.10;97282.00;;;;4976510;28;20183;-83
2022/01/29 12:54:04;;;;;;;2.27;1.30;;;11.80;62.40;12.10;97269.00;;;;4978192;28;20241;-84
2022/01/29 12:56:34;;;;;;;1.43;1.33;;;11.90;62.70;12.10;97287.00;;;;4964816;28;20255;-84
2022/01/29 12:59:04;;;;;;;1.50;1.10;;;11.90;62.10;12.20;97279.00;;;;4973216;28;20207;-84
2022/01/29 13:01:31;;;;;;;1.60;0.93;;;11.90;63.20;12.20;97276.00;;;;4967027;28;20230;-85
2022/01/29 13:04:05;;;;;;;1.67;1.27;;;12.00;62.40;12.20;97273.00;;;;4988791;28;20202;-85
2022/01/29 13:06:33;;;;;;;1.37;1.27;;;12.00;62.30;12.30;97271.00;;;;4975834;28;20707;-84
2022/01/29 13:09:21;;;;;;;2.17;1.30;;;12.10;63.30;12.30;97258.00;;;;4971920;28;20214;-82
2022/01/29 13:11:55;;;;;;;0.87;0.87;;;12.10;60.70;12.40;97255.00;;;;4956527;28;20222;-84
2022/01/29 13:14:23;;;;;;;1.20;0.90;;;12.20;62.60;12.40;97235.00;;;;4953135;29;20592;-83
2022/01/29 13:16:54;;;;;;;1.13;1.03;;;12.10;62.10;12.40;97231.00;;;;4965957;28;20631;-83
2022/01/29 13:19:24;;;;;;;1.43;1.20;;;12.20;62.20;12.40;97242.00;;;;4976100;28;20192;-84
2022/01/29 13:21:57;;;;;;;1.23;1.13;;;12.20;61.70;12.50;97233.00;;;;4965144;28;20199;-84
2022/01/29 13:24:37;;;;;;;1.10;1.00;;;12.20;62.80;12.50;97228.00;;;;4976722;28;20195;-84
2022/01/29 13:27:09;;;;;;;1.37;0.93;;;12.30;62.70;12.60;97234.00;;;;4966671;28;20183;-83
2022/01/29 13:29:42;;;;;;;1.10;1.00;;;12.30;63.80;12.70;97228.00;;;;4995995;28;20241;-83
2022/01/29 13:32:13;;;;;;;1.07;0.93;;;12.40;64.20;12.70;97224.00;;;;4984241;28;20601;-84
2022/01/29 13:34:44;;;;;;;0.93;0.90;;;12.40;62.50;12.70;97226.00;;;;4987083;28;20229;-84
2022/01/29 13:37:33;;;;;;;1.43;0.80;;;12.40;63.10;12.70;97220.00;;;;4986465;28;20220;-84
2022/01/29 13:40:03;;;;;;;0.87;0.87;;;12.50;62.20;12.70;97220.00;;;;4989445;28;20198;-85
2022/01/29 13:42:34;;;;;;;1.00;0.90;;;12.50;63.80;12.70;97203.00;;;;4975349;28;20199;-85
2022/01/29 13:45:10;;;;;;;1.43;0.80;;;12.50;62.80;12.70;97209.00;;;;4977622;28;20309;-85
2022/01/29 13:47:58;;;;;;;0.83;0.70;;;12.50;63.30;12.70;97197.00;;;;4977205;28;20200;-84
2022/01/29 13:50:29;;;;;;;0.90;0.80;;;12.50;63.70;12.70;97196.00;;;;4972887;28;20608;-84
2022/01/29 13:53:11;;;;;;;0.83;0.83;;;12.50;63.90;12.70;97201.00;;;;4965716;28;20650;-84
2022/01/29 13:55:41;;;;;;;1.37;0.80;;;12.50;62.90;12.70;97190.00;;;;4971526;28;20485;-84
2022/01/29 13:58:11;;;;;;;1.20;0.93;;;12.40;63.80;12.70;97194.00;;;;4975325;28;20303;-84
2022/01/29 14:01:00;;;;;;;1.30;1.23;;;12.50;64.40;12.70;97198.00;;;;4976070;28;20203;-84
2022/01/29 14:03:51;;;;;;;1.20;0.80;;;12.50;64.30;12.80;97175.00;;;;4976066;28;20290;-83
2022/01/29 14:06:32;;;;;;;0.57;0.57;;;12.50;64.10;12.80;97177.00;;;;4976373;28;20682;-84
2022/01/29 14:09:21;;;;;;;0.80;0.80;;;12.60;64.50;12.80;97178.00;;;;4973497;28;20660;-84
2022/01/29 14:12:17;;;;;;;0.60;0.60;;;12.60;64.60;12.90;97172.00;;;;4967480;28;20744;-84
2022/01/29 14:14:50;;;;;;;0.60;0.60;;;12.60;64.70;12.90;97172.00;;;;4975670;28;20631;-84
2022/01/29 14:17:24;;;;;;;0.70;0.70;;;12.70;64.60;12.90;97175.00;;;;4984926;28;20202;-84
2022/01/29 14:19:54;;;;;;;1.10;0.60;;;12.70;64.20;12.90;97170.00;;;;5000567;28;20195;-84
2022/01/29 14:22:24;;;;;;;0.60;0.60;;;12.70;65.00;13.00;97162.00;;;;4995791;28;20209;-84
2022/01/29 14:24:52;;;;;;;1.00;0.90;;;12.70;65.60;13.00;97173.00;;;;4980739;28;20216;-84
2022/01/29 14:27:28;;;;;;;1.57;0.73;;;12.70;64.40;13.00;97164.00;;;;4983197;28;20294;-85
2022/01/29 14:29:55;;;;;;;2.73;1.40;;;12.70;64.00;13.00;97170.00;;;;4964073;28;20219;-85
2022/01/29 14:32:26;;;;;;;0.90;0.90;;;12.70;63.50;13.00;97170.00;;;;4973356;28;20199;-85
2022/01/29 14:34:53;;;;;;;0.60;0.57;;;12.80;63.40;13.00;97161.00;;;;4974756;28;20451;-85
2022/01/29 14:37:21;;;;;;;0.80;0.80;;;12.80;64.00;13.00;97172.00;;;;4975360;28;20195;-85
2022/01/29 14:39:48;;;;;;;1.03;0.90;;;12.80;64.10;13.00;97179.00;;;;4976017;28;20214;-85
2022/01/29 14:42:23;;;;;;;0.80;0.80;;;12.80;63.80;13.00;97182.00;;;;4957068;28;20223;-85
2022/01/29 14:44:50;;;;;;;0.70;0.70;;;12.80;62.90;12.90;97185.00;;;;4968879;28;20218;-85
2022/01/29 14:47:17;;;;;;;0.90;0.90;;;12.70;62.90;12.90;97181.00;;;;4976529;28;20203;-85
2022/01/29 14:49:46;;;;;;;1.53;1.07;;;12.70;63.50;12.90;97174.00;;;;4976322;28;20286;-85
2022/01/29 14:52:15;;;;;;;1.30;1.20;;;12.70;63.70;12.90;97177.00;;;;4976411;28;20695;-85
2022/01/29 14:54:45;;;;;;;1.17;1.00;;;12.70;63.80;12.90;97173.00;;;;4975964;28;20227;-85
2022/01/29 14:57:12;;;;;;;1.30;1.20;;;12.70;63.90;12.90;97175.00;;;;4975686;28;20202;-85
2022/01/29 14:59:40;;;;;;;1.30;1.20;;;12.70;63.50;12.90;97164.00;;;;4975623;28;20203;-85
2022/01/29 15:02:08;;;;;;;1.00;1.00;;;12.70;63.00;12.80;97179.00;;;;4974733;28;20655;-86
2022/01/29 15:04:35;;;;;;;0.87;0.87;;;12.80;63.50;12.90;97177.00;;;;4975361;28;20230;-85
2022/01/29 15:07:03;;;;;;;1.23;1.10;;;12.60;62.60;12.80;97175.00;;;;4968218;28;20203;-85
2022/01/29 15:09:30;;;;;;;1.30;1.20;;;12.60;63.70;12.80;97171.00;;;;4970043;28;20677;-85
2022/01/29 15:11:59;;;;;;;1.37;1.27;;;12.60;63.10;12.80;97181.00;;;;4974246;28;20575;-85
2022/01/29 15:14:26;;;;;;;1.70;1.43;;;12.60;63.00;12.80;97170.00;;;;4970783;28;20235;-85
2022/01/29 15:16:53;;;;;;;1.83;1.60;;;12.60;63.40;12.80;97168.00;;;;4975669;28;20259;-85
2022/01/29 15:19:20;;;;;;;1.67;1.43;;;12.60;62.60;12.80;97161.00;;;;4973476;28;20307;-85
2022/01/29 15:21:48;;;;;;;1.73;1.60;;;12.60;63.20;12.80;97172.00;;;;4974069;28;20195;-85
2022/01/29 15:24:15;;;;;;;1.90;1.40;;;12.60;62.90;12.80;97184.00;;;;4973372;28;20187;-85
2022/01/29 15:26:42;;;;;;;1.70;1.60;;;12.60;63.30;12.80;97179.00;;;;4973638;28;20636;-85
2022/01/29 15:29:10;;;;;;;1.60;1.30;;;12.60;63.40;12.80;97176.00;;;;4974384;28;20204;-86
2022/01/29 15:31:39;;;;;;;1.77;1.40;;;12.50;63.30;12.80;97175.00;;;;4972806;28;20203;-85
2022/01/29 15:34:06;;;;;;;1.97;1.43;;;12.50;63.40;12.80;97180.00;;;;4974341;28;20199;-85
2022/01/29 15:36:34;;;;;;;1.20;1.13;;;12.50;63.00;12.70;97167.00;;;;4969836;28;20237;-83
2022/01/29 15:39:01;;;;;;;1.73;1.50;;;12.50;63.10;12.70;97157.00;;;;4974225;28;20200;-84
2022/01/29 15:41:28;;;;;;;1.40;1.30;;;12.50;63.20;12.70;97157.00;;;;4976542;28;20208;-84
2022/01/29 15:43:55;;;;;;;1.83;1.53;;;12.50;63.20;12.70;97150.00;;;;4975888;28;20199;-84
2022/01/29 15:46:24;;;;;;;2.03;1.87;;;12.50;63.10;12.70;97140.00;;;;4983838;28;20211;-85
2022/01/29 15:48:53;;;;;;;1.90;1.80;;;12.50;63.50;12.70;97140.00;;;;4974103;28;20738;-84
2022/01/29 15:51:20;;;;;;;1.57;1.30;;;12.50;62.70;12.70;97142.00;;;;4976537;28;20203;-84
2022/01/29 15:53:47;;;;;;;1.40;1.30;;;12.40;62.80;12.60;97139.00;;;;4975338;28;20680;-84
2022/01/29 15:56:14;;;;;;;2.03;1.57;;;12.40;63.10;12.60;97152.00;;;;4982562;28;20245;-84
2022/01/29 15:58:42;;;;;;;1.60;1.40;;;12.40;62.80;12.60;97149.00;;;;4983588;28;20199;-84
2022/01/29 16:01:09;;;;;;;1.30;1.20;;;12.40;63.30;12.60;97146.00;;;;4974795;28;20290;-84
2022/01/29 16:03:37;;;;;;;3.07;1.60;;;12.30;63.30;12.50;97150.00;;;;4975070;28;20199;-84
2022/01/29 16:06:04;;;;;;;1.63;1.27;;;12.30;63.20;12.50;97152.00;;;;4974964;28;20231;-84
2022/01/29 16:08:31;;;;;;;1.50;1.30;;;12.30;63.80;12.50;97142.00;;;;4975384;28;20624;-84
2022/01/29 16:10:58;;;;;;;2.47;1.40;;;12.30;63.70;12.50;97138.00;;;;4974855;28;20214;-83
2022/01/29 16:13:28;;;;;;;2.07;1.70;;;12.30;63.80;12.50;97143.00;;;;4977737;28;20221;-84
2022/01/29 16:15:55;;;;;;;1.70;1.50;;;12.30;63.90;12.50;97149.00;;;;4984960;28;20254;-83
2022/01/29 16:18:23;;;;;;;1.73;1.63;;;12.30;63.80;12.50;97159.00;;;;4978916;28;20202;-84
2022/01/29 16:20:53;;;;;;;1.87;1.33;;;12.30;64.30;12.50;97150.00;;;;4969941;28;20576;-84
2022/01/29 16:23:20;;;;;;;1.00;1.00;;;12.30;64.10;12.50;97145.00;;;;4977842;28;20275;-84
2022/01/29 16:25:48;;;;;;;1.43;1.23;;;12.30;63.70;12.40;97145.00;;;;4977258;28;20306;-85
2022/01/29 16:28:16;;;;;;;1.53;1.30;;;12.20;64.00;12.50;97156.00;;;;4971243;28;20203;-87
2022/01/29 16:30:44;;;;;;;1.20;1.10;;;12.20;64.10;12.50;97153.00;;;;4972505;28;20207;-87
2022/01/29 16:33:12;;;;;;;1.13;0.83;;;12.20;64.10;12.50;97146.00;;;;4963767;28;20210;-86
2022/01/29 16:35:39;;;;;;;0.97;0.90;;;12.20;64.40;12.50;97128.00;;;;4970279;28;20700;-86
2022/01/29 16:38:09;;;;;;;0.70;0.70;;;12.20;64.40;12.40;97132.00;;;;4975700;28;20535;-86
2022/01/29 16:40:36;;;;;;;1.33;0.83;;;12.20;64.40;12.40;97141.00;;;;4963258;28;20235;-87
2022/01/29 16:43:04;;;;;;;0.73;0.73;;;12.20;64.10;12.40;97129.00;;;;4972002;28;20286;-87
2022/01/29 16:45:35;;;;;;;0.97;0.87;;;12.20;64.30;12.30;97124.00;;;;4973026;28;20223;-88